Vasiliy Tatischev — 5IM480 — position and weather

sailwx.info

Track history (hours):
 
Tides and Currents Weather Stations Pressure Air Temp Water Temp Dewpoint Dewpoint Depression Visibility Wind Speed Wind Dir Waves Ship Positions

Vasiliy Tatischev

Last reported at 2017-May-13 18:01 UTC. Time now 2017-May-29 13:24 UTC.
Position N 46°57' E 031°59'.
Warning: this ship's position is 15 days out of date.

Length 138 m; draft 2.6 m.

Type: Cargo ship. MMSI: 677038000.

Date/timePositionNaut miles runAvg speedWind from/ knotsBaromVisibWave heightAir tempDewpointWater temp
2017-May-13 18:01N 46°57' E 031°59'0 0.0
2017-May-13 17:58N 46°57' E 031°59'0 0.0
2017-May-13 17:29N 46°57' E 031°59'0 0.0
2017-May-13 16:59N 46°57' E 031°59'0 0.0
2017-May-13 16:29N 46°57' E 031°59'0 0.0
2017-May-13 16:00N 46°57' E 031°59'0 0.0
2017-May-13 15:30N 46°57' E 031°59'0 0.0
2017-May-13 15:00N 46°57' E 031°59'0 0.1
2017-May-13 14:30N 46°57' E 031°59'1 0.8
2017-May-13 13:29N 46°56' E 031°60'0 0.0
2017-May-13 12:59N 46°56' E 031°60'0 0.0
2017-May-13 12:29N 46°56' E 031°60'0 0.0
2017-May-13 12:00N 46°56' E 031°60'0 0.0
2017-May-13 11:30N 46°56' E 031°60'1 1.6
2017-May-13 11:00N 46°56' E 032°01'3 6.0
2017-May-13 10:30N 46°53' E 031°60'4 7.8
2017-May-13 10:00N 46°50' E 031°56'4 7.2
2017-May-13 09:30N 46°47' E 031°53'4 7.0
2017-May-13 09:00N 46°44' E 031°56'4 7.4
2017-May-13 08:30N 46°40' E 031°56'4 7.3
2017-May-13 08:00N 46°37' E 031°53'4 7.7
2017-May-13 07:30N 46°36' E 031°48'4 7.2
2017-May-13 07:00N 46°36' E 031°43'32 5.0
2017-May-13 00:33N 46°28' E 030°57'4 7.5
2017-May-12 23:57N 46°23' E 030°60'  
2017-May-05 07:21N 44°52' E 036°36'0 0.0
2017-May-05 06:54N 44°52' E 036°36'0 0.0
2017-May-05 06:28N 44°52' E 036°36'  
Track history (hours):
 
Tides and Currents Weather Stations Pressure Air Temp Water Temp Dewpoint Dewpoint Depression Visibility Wind Speed Wind Dir Waves Ship Positions

Vasiliy Tatischev

Last reported at 2017-May-13 18:01 UTC. Time now 2017-May-29 13:24 UTC.
Position N 46°57' E 031°59'.
Warning: this ship's position is 15 days out of date.

Length 138 m; draft 2.6 m.

Type: Cargo ship. MMSI: 677038000.

Date/timePositionNaut miles runAvg speedWind from/ knotsBaromVisibWave heightAir tempDewpointWater temp
2017-May-13 18:01N 46°57' E 031°59'0 0.0
2017-May-13 17:58N 46°57' E 031°59'0 0.0
2017-May-13 17:29N 46°57' E 031°59'0 0.0
2017-May-13 16:59N 46°57' E 031°59'0 0.0
2017-May-13 16:29N 46°57' E 031°59'0 0.0
2017-May-13 16:00N 46°57' E 031°59'0 0.0
2017-May-13 15:30N 46°57' E 031°59'0 0.0
2017-May-13 15:00N 46°57' E 031°59'0 0.1
2017-May-13 14:30N 46°57' E 031°59'1 0.8
2017-May-13 13:29N 46°56' E 031°60'0 0.0
2017-May-13 12:59N 46°56' E 031°60'0 0.0
2017-May-13 12:29N 46°56' E 031°60'0 0.0
2017-May-13 12:00N 46°56' E 031°60'0 0.0
2017-May-13 11:30N 46°56' E 031°60'1 1.6
2017-May-13 11:00N 46°56' E 032°01'3 6.0
2017-May-13 10:30N 46°53' E 031°60'4 7.8
2017-May-13 10:00N 46°50' E 031°56'4 7.2
2017-May-13 09:30N 46°47' E 031°53'4 7.0
2017-May-13 09:00N 46°44' E 031°56'4 7.4
2017-May-13 08:30N 46°40' E 031°56'4 7.3
2017-May-13 08:00N 46°37' E 031°53'4 7.7
2017-May-13 07:30N 46°36' E 031°48'4 7.2
2017-May-13 07:00N 46°36' E 031°43'32 5.0
2017-May-13 00:33N 46°28' E 030°57'4 7.5
2017-May-12 23:57N 46°23' E 030°60'  
2017-May-05 07:21N 44°52' E 036°36'0 0.0
2017-May-05 06:54N 44°52' E 036°36'0 0.0
2017-May-05 06:28N 44°52' E 036°36'  

Dump ship's entire track history